createdAt,value
2023-02-14T00:04:35.098Z,1037.3
2023-02-14T00:19:31.579Z,1037.3
2023-02-14T00:34:28.348Z,1037.2
2023-02-14T00:49:23.756Z,1037.2
2023-02-14T01:04:19.607Z,1037
2023-02-14T01:19:15.950Z,1037
2023-02-14T01:34:12.039Z,1037
2023-02-14T01:49:08.295Z,1037.1
2023-02-14T02:04:04.589Z,1036.9
2023-02-14T02:19:00.458Z,1036.9
2023-02-14T02:33:56.182Z,1036.9
2023-02-14T02:48:52.177Z,1036.8
2023-02-14T03:03:48.160Z,1036.9
2023-02-14T03:33:40.075Z,1036.9
2023-02-14T03:48:36.603Z,1037
2023-02-14T04:03:32.950Z,1036.9
2023-02-14T04:18:28.792Z,1036.8
2023-02-14T04:33:25.195Z,1036.8
2023-02-14T04:48:21.615Z,1036.7
2023-02-14T05:03:17.958Z,1036.6
2023-02-14T05:18:13.896Z,1036.6
2023-02-14T05:33:09.800Z,1036.5
2023-02-14T05:48:06.103Z,1036.6
2023-02-14T06:03:02.156Z,1036.6
2023-02-14T06:17:58.175Z,1036.6
2023-02-14T06:32:55.185Z,1036.5
2023-02-14T06:47:51.370Z,1036.7
2023-02-14T07:02:47.877Z,1036.6
2023-02-14T07:17:43.910Z,1036.6
2023-02-14T07:32:40.056Z,1036.5
2023-02-14T07:47:37.360Z,1036.4
2023-02-14T08:02:32.989Z,1036.4
2023-02-14T08:17:29.308Z,1036.3
2023-02-14T08:32:26.077Z,1036.4
2023-02-14T08:47:22.389Z,1036.3
2023-02-14T09:02:18.647Z,1036.4
2023-02-14T09:17:15.081Z,1036.4
2023-02-14T09:32:11.528Z,1036.3
2023-02-14T09:47:08.116Z,1036.2
2023-02-14T10:02:04.813Z,1036.2
2023-02-14T10:17:01.350Z,1036.1
2023-02-14T10:31:57.606Z,1036
2023-02-14T10:46:54.421Z,1035.7
2023-02-14T11:01:51.239Z,1035.7
2023-02-14T11:16:47.457Z,1035.6
2023-02-14T11:31:44.050Z,1035.4
2023-02-14T11:46:51.125Z,1035.2
2023-02-14T12:01:36.177Z,1034.8
2023-02-14T12:16:32.943Z,1034.6
2023-02-14T12:31:29.524Z,1034.4
2023-02-14T13:01:28.239Z,1033.9
2023-02-14T13:16:19.137Z,1033.7
2023-02-14T13:31:15.691Z,1033.5
2023-02-14T13:46:12.036Z,1033.3
2023-02-14T14:01:08.451Z,1033.2
2023-02-14T14:16:04.359Z,1033
2023-02-14T14:31:00.683Z,1032.9
2023-02-14T14:45:57.393Z,1032.8
2023-02-14T15:00:53.722Z,1032.7
2023-02-14T15:15:50.394Z,1032.6
2023-02-14T15:30:46.321Z,1032.6
2023-02-14T15:45:42.292Z,1032.6
2023-02-14T16:00:38.045Z,1032.6
2023-02-14T16:15:33.898Z,1032.6
2023-02-14T16:30:28.958Z,1032.7
2023-02-14T16:45:24.833Z,1032.8
2023-02-14T17:00:20.721Z,1032.9
2023-02-14T17:15:16.575Z,1033
2023-02-14T17:30:12.484Z,1033.1
2023-02-14T17:45:08.384Z,1033.2
2023-02-14T18:00:04.228Z,1033.3
2023-02-14T18:14:59.968Z,1033.3
2023-02-14T18:29:56.218Z,1033.4
2023-02-14T18:44:52.210Z,1033.4
2023-02-14T18:59:48.242Z,1033.3
2023-02-14T19:14:43.748Z,1033.2
2023-02-14T19:29:39.321Z,1033
2023-02-14T19:44:35.445Z,1033.1
2023-02-14T19:59:31.992Z,1032.9
2023-02-14T20:14:28.180Z,1033
2023-02-14T20:29:23.928Z,1032.9
2023-02-14T20:44:20.179Z,1032.8
2023-02-14T20:59:16.653Z,1032.8
2023-02-14T21:14:12.312Z,1032.8
2023-02-14T21:29:08.500Z,1032.6
2023-02-14T21:44:04.558Z,1032.6
2023-02-14T21:59:00.557Z,1032.5
2023-02-14T22:13:57.046Z,1032.5
2023-02-14T22:28:53.166Z,1032.5
2023-02-14T22:43:49.510Z,1032.4
2023-02-14T22:58:45.570Z,1032.3
2023-02-14T23:13:41.925Z,1032.3
2023-02-14T23:28:38.270Z,1032.3
2023-02-14T23:43:34.111Z,1032.2
2023-02-14T23:58:30.752Z,1032.1
